createdAt,value
2018-07-21T00:02:11.416Z,1.83
2018-07-21T00:04:39.925Z,2.10
2018-07-21T00:07:08.426Z,2.07
2018-07-21T00:09:37.073Z,2.10
2018-07-21T00:12:05.779Z,2.00
2018-07-21T00:14:34.271Z,2.70
2018-07-21T00:17:02.945Z,2.40
2018-07-21T00:19:31.490Z,2.23
2018-07-21T00:22:00.104Z,1.90
2018-07-21T00:24:28.898Z,2.77
2018-07-21T00:26:57.503Z,2.40
2018-07-21T00:29:26.179Z,2.50
2018-07-21T00:31:54.694Z,2.40
2018-07-21T00:34:23.281Z,2.03
2018-07-21T00:36:51.890Z,2.37
2018-07-21T00:39:20.494Z,2.43
2018-07-21T00:41:49.078Z,2.60
2018-07-21T00:44:18.167Z,2.63
2018-07-21T00:46:46.859Z,2.30
2018-07-21T00:49:15.378Z,1.83
2018-07-21T00:51:44.066Z,2.10
2018-07-21T00:54:12.566Z,2.00
2018-07-21T00:56:41.221Z,2.67
2018-07-21T00:59:09.751Z,2.53
2018-07-21T01:01:38.289Z,2.60
2018-07-21T01:04:06.939Z,2.37
2018-07-21T01:06:35.464Z,2.73
2018-07-21T01:09:04.883Z,2.40
2018-07-21T01:11:33.455Z,2.47
2018-07-21T01:14:02.085Z,2.20
2018-07-21T01:16:30.735Z,2.17
2018-07-21T01:18:59.296Z,2.40
2018-07-21T01:21:27.944Z,2.20
2018-07-21T01:23:56.625Z,2.80
2018-07-21T01:26:25.413Z,2.47
2018-07-21T01:28:53.942Z,2.93
2018-07-21T01:31:22.991Z,2.30
2018-07-21T01:33:51.631Z,2.57
2018-07-21T01:36:20.167Z,2.57
2018-07-21T01:38:48.839Z,2.77
2018-07-21T01:41:17.628Z,2.43
2018-07-21T01:43:46.198Z,2.67
2018-07-21T01:46:14.903Z,2.80
2018-07-21T01:48:43.518Z,2.50
2018-07-21T01:51:12.082Z,3.10
2018-07-21T01:53:40.747Z,2.67
2018-07-21T01:56:09.374Z,2.80
2018-07-21T01:58:38.015Z,2.97
2018-07-21T02:01:07.110Z,2.80
2018-07-21T02:03:35.746Z,3.10
2018-07-21T02:06:04.378Z,3.17
2018-07-21T02:08:32.961Z,2.77
2018-07-21T02:11:01.650Z,2.50
2018-07-21T02:13:30.251Z,2.77
2018-07-21T02:15:58.917Z,2.97
2018-07-21T02:18:27.510Z,3.10
2018-07-21T02:20:56.104Z,2.77
2018-07-21T02:23:24.718Z,2.73
2018-07-21T02:25:53.229Z,3.07
2018-07-21T02:28:21.738Z,2.73
2018-07-21T02:30:50.424Z,2.73
2018-07-21T02:33:19.011Z,2.60
2018-07-21T02:35:47.685Z,2.60
2018-07-21T02:38:16.291Z,3.00
2018-07-21T02:40:44.868Z,3.00
2018-07-21T02:43:13.534Z,2.87
2018-07-21T02:45:42.201Z,3.13
2018-07-21T02:48:10.707Z,3.33
2018-07-21T02:50:39.288Z,2.73
2018-07-21T02:53:07.910Z,2.77
2018-07-21T02:55:36.549Z,3.10
2018-07-21T02:58:05.077Z,2.97
2018-07-21T03:00:34.544Z,2.73
2018-07-21T03:03:03.151Z,3.00
2018-07-21T03:05:31.743Z,3.30
2018-07-21T03:08:00.394Z,2.90
2018-07-21T03:10:29.990Z,2.50
2018-07-21T03:12:58.574Z,2.50
2018-07-21T03:15:27.175Z,2.77
2018-07-21T03:17:55.824Z,2.50
2018-07-21T03:20:24.428Z,2.70
2018-07-21T03:22:53.003Z,3.20
2018-07-21T03:25:21.611Z,3.13
2018-07-21T03:27:50.275Z,2.87
2018-07-21T03:30:18.959Z,2.90
2018-07-21T03:32:47.857Z,2.73
2018-07-21T03:35:16.463Z,2.83
2018-07-21T03:37:45.731Z,2.63
2018-07-21T03:40:14.519Z,3.00
2018-07-21T03:42:43.103Z,3.03
2018-07-21T03:45:11.686Z,2.60
2018-07-21T03:47:40.290Z,2.70
2018-07-21T03:50:08.875Z,2.87
2018-07-21T03:52:37.503Z,2.57
2018-07-21T03:55:06.277Z,2.83
2018-07-21T03:57:34.854Z,2.87
2018-07-21T04:00:03.557Z,3.00
2018-07-21T04:02:32.280Z,2.97
2018-07-21T04:05:00.877Z,2.50
2018-07-21T04:07:29.507Z,2.50
2018-07-21T04:09:58.133Z,2.67
2018-07-21T04:12:26.716Z,2.67
2018-07-21T04:14:55.246Z,2.73
2018-07-21T04:17:26.631Z,2.27
2018-07-21T04:19:56.100Z,2.47
2018-07-21T04:22:25.798Z,2.57
2018-07-21T04:24:54.851Z,2.40
2018-07-21T04:27:23.507Z,2.40
2018-07-21T04:29:52.938Z,2.80
2018-07-21T04:32:22.037Z,2.80
2018-07-21T04:34:50.720Z,2.90
2018-07-21T04:37:19.347Z,2.57
2018-07-21T04:39:47.985Z,2.63
2018-07-21T04:42:16.498Z,2.63
2018-07-21T04:44:45.101Z,3.03
2018-07-21T04:47:13.647Z,2.47
2018-07-21T04:49:42.414Z,2.70
2018-07-21T04:52:11.003Z,2.60
2018-07-21T04:54:39.603Z,2.67
2018-07-21T04:57:08.272Z,2.80
2018-07-21T04:59:36.853Z,2.63
2018-07-21T05:02:05.485Z,2.90
2018-07-21T05:04:34.035Z,3.07
2018-07-21T05:07:03.307Z,2.83
2018-07-21T05:09:32.106Z,2.67
2018-07-21T05:12:00.792Z,2.63
2018-07-21T05:14:29.477Z,2.53
2018-07-21T05:16:58.086Z,2.90
2018-07-21T05:19:26.745Z,2.67
2018-07-21T05:21:55.295Z,2.10
2018-07-21T05:24:23.915Z,2.40
2018-07-21T05:26:52.494Z,2.67
2018-07-21T05:29:21.004Z,2.40
2018-07-21T05:31:49.627Z,2.57
2018-07-21T05:34:18.243Z,2.40
2018-07-21T05:36:46.826Z,2.47
2018-07-21T05:39:15.439Z,2.50
2018-07-21T05:41:43.956Z,2.47
2018-07-21T05:44:12.489Z,2.23
2018-07-21T05:46:40.986Z,2.37
2018-07-21T05:49:09.789Z,2.27
2018-07-21T05:51:38.426Z,2.10
2018-07-21T05:54:07.172Z,2.63
2018-07-21T05:56:35.774Z,2.20
2018-07-21T05:59:04.431Z,2.60
2018-07-21T06:01:33.065Z,2.40
2018-07-21T06:04:01.579Z,2.37
2018-07-21T06:06:30.170Z,2.62
2018-07-21T06:08:58.831Z,2.37
2018-07-21T06:11:27.451Z,2.37
2018-07-21T06:13:56.080Z,2.30
2018-07-21T06:16:24.665Z,2.43
2018-07-21T06:18:53.301Z,2.40
2018-07-21T06:21:21.933Z,2.70
2018-07-21T06:23:50.862Z,2.20
2018-07-21T06:26:19.422Z,2.43
2018-07-21T06:28:48.089Z,2.22
2018-07-21T06:31:16.618Z,2.20
2018-07-21T06:33:45.152Z,2.17
2018-07-21T06:36:13.627Z,2.40
2018-07-21T06:38:42.119Z,2.40
2018-07-21T06:41:10.901Z,2.50
2018-07-21T06:43:39.894Z,2.40
2018-07-21T06:46:08.993Z,2.50
2018-07-21T06:48:37.930Z,2.22
2018-07-21T06:51:06.620Z,2.00
2018-07-21T06:53:35.194Z,2.20
2018-07-21T06:56:03.730Z,1.92
2018-07-21T06:58:32.416Z,2.33
2018-07-21T07:01:00.892Z,2.70
2018-07-21T07:03:29.483Z,2.40
2018-07-21T07:05:58.165Z,1.87
2018-07-21T07:08:26.849Z,2.08
2018-07-21T07:10:55.595Z,2.37
2018-07-21T07:13:24.267Z,2.15
2018-07-21T07:15:53.011Z,2.05
2018-07-21T07:18:21.610Z,2.25
2018-07-21T07:20:50.276Z,2.00
2018-07-21T07:23:18.803Z,2.65
2018-07-21T07:25:47.420Z,2.10
2018-07-21T07:28:15.966Z,2.12
2018-07-21T07:30:44.561Z,2.00
2018-07-21T07:33:13.190Z,2.20
2018-07-21T07:35:41.718Z,2.22
2018-07-21T07:38:10.291Z,2.35
2018-07-21T07:40:38.939Z,2.52
2018-07-21T07:43:08.141Z,2.47
2018-07-21T07:45:36.720Z,1.80
2018-07-21T07:48:05.405Z,1.95
2018-07-21T07:50:33.988Z,2.20
2018-07-21T07:53:02.671Z,1.60
2018-07-21T07:55:32.690Z,2.27
2018-07-21T07:58:03.056Z,2.20
2018-07-21T08:00:31.797Z,2.22
2018-07-21T08:03:01.643Z,2.33
2018-07-21T08:05:30.709Z,2.22
2018-07-21T08:07:59.291Z,2.27
2018-07-21T08:10:28.280Z,2.33
2018-07-21T08:12:56.970Z,2.15
2018-07-21T08:15:25.490Z,1.98
2018-07-21T08:17:54.131Z,1.98
2018-07-21T08:20:22.936Z,1.92
2018-07-21T08:22:51.505Z,2.00
2018-07-21T08:25:20.108Z,2.17
2018-07-21T08:27:48.696Z,2.10
2018-07-21T08:30:17.459Z,1.82
2018-07-21T08:32:46.759Z,1.90
2018-07-21T08:35:15.306Z,2.22
2018-07-21T08:37:43.930Z,2.08
2018-07-21T08:40:13.330Z,2.30
2018-07-21T08:42:42.075Z,1.92
2018-07-21T08:45:10.748Z,1.95
2018-07-21T08:47:39.383Z,1.90
2018-07-21T08:50:08.274Z,2.17
2018-07-21T08:52:36.959Z,1.92
2018-07-21T08:55:05.791Z,2.20
2018-07-21T08:57:34.431Z,1.87
2018-07-21T09:00:03.113Z,1.92
2018-07-21T09:02:31.799Z,2.27
2018-07-21T09:05:00.403Z,2.00
2018-07-21T09:07:28.979Z,1.98
2018-07-21T09:09:57.591Z,2.17
2018-07-21T09:12:26.234Z,1.80
2018-07-21T09:14:55.667Z,2.08
2018-07-21T09:17:24.235Z,2.10
2018-07-21T09:19:53.430Z,2.10
2018-07-21T09:22:22.163Z,1.90
2018-07-21T09:24:50.722Z,2.10
2018-07-21T09:27:19.328Z,2.10
2018-07-21T09:29:47.881Z,2.25
2018-07-21T09:32:16.512Z,2.20
2018-07-21T09:34:45.515Z,2.40
2018-07-21T09:37:14.111Z,2.30
2018-07-21T09:39:42.897Z,2.17
2018-07-21T09:42:11.411Z,2.10
2018-07-21T09:44:39.898Z,2.30
2018-07-21T09:47:08.543Z,3.00
2018-07-21T09:49:37.597Z,2.10
2018-07-21T09:52:06.343Z,2.17
2018-07-21T09:54:35.314Z,2.30
2018-07-21T09:57:03.846Z,1.98
2018-07-21T09:59:33.813Z,2.12
2018-07-21T10:02:02.317Z,2.20
2018-07-21T10:04:30.979Z,2.05
2018-07-21T10:06:59.664Z,2.40
2018-07-21T10:09:28.279Z,2.55
2018-07-21T10:11:56.932Z,2.60
2018-07-21T10:14:25.619Z,2.27
2018-07-21T10:16:54.246Z,2.25
2018-07-21T10:19:22.885Z,2.02
2018-07-21T10:21:51.498Z,1.92
2018-07-21T10:24:25.255Z,1.65
2018-07-21T10:26:58.979Z,1.70
2018-07-21T10:29:27.662Z,2.30
2018-07-21T10:31:56.245Z,1.95
2018-07-21T10:34:25.040Z,2.12
2018-07-21T10:36:53.653Z,2.47
2018-07-21T10:39:22.355Z,2.10
2018-07-21T10:41:50.884Z,2.40
2018-07-21T10:44:19.466Z,1.82
2018-07-21T10:46:48.152Z,2.58
2018-07-21T10:49:16.678Z,2.35
2018-07-21T10:51:45.327Z,1.75
2018-07-21T10:54:13.922Z,2.10
2018-07-21T10:56:42.998Z,1.92
2018-07-21T10:59:11.689Z,2.10
2018-07-21T11:01:40.366Z,1.92
2018-07-21T11:04:08.978Z,1.98
2018-07-21T11:06:37.576Z,1.80
2018-07-21T11:09:08.812Z,1.87
2018-07-21T11:11:37.462Z,1.80
2018-07-21T11:14:06.239Z,1.90
2018-07-21T11:16:34.833Z,1.70
2018-07-21T11:19:03.432Z,1.67
2018-07-21T11:21:32.023Z,1.80
2018-07-21T11:24:00.686Z,1.95
2018-07-21T11:26:29.217Z,1.62
2018-07-21T11:28:57.850Z,2.33
2018-07-21T11:31:27.411Z,1.60
2018-07-21T11:33:56.274Z,1.92
2018-07-21T11:36:25.106Z,1.57
2018-07-21T11:38:53.922Z,1.60
2018-07-21T11:41:23.122Z,1.70
2018-07-21T11:43:51.754Z,1.70
2018-07-21T11:46:20.391Z,1.47
2018-07-21T11:48:49.018Z,1.50
2018-07-21T11:51:17.619Z,1.50
2018-07-21T11:53:46.174Z,1.30
2018-07-21T11:56:14.718Z,1.50
2018-07-21T11:58:43.460Z,1.35
2018-07-21T12:01:12.090Z,1.35
2018-07-21T12:03:40.591Z,1.42
2018-07-21T12:06:09.261Z,1.20
2018-07-21T12:08:37.943Z,1.30
2018-07-21T12:11:06.523Z,1.30
2018-07-21T12:13:35.248Z,1.47
2018-07-21T12:16:03.894Z,1.30
2018-07-21T12:18:32.395Z,1.35
2018-07-21T12:21:00.958Z,1.30
2018-07-21T12:23:29.483Z,1.35
2018-07-21T12:25:58.068Z,1.32
2018-07-21T12:28:26.644Z,1.20
2018-07-21T12:30:55.391Z,1.32
2018-07-21T12:33:23.904Z,1.22
2018-07-21T12:35:52.493Z,1.22
2018-07-21T12:38:21.046Z,1.05
2018-07-21T12:40:49.536Z,1.20
2018-07-21T12:43:18.139Z,1.17
2018-07-21T12:45:46.785Z,1.10
2018-07-21T12:48:15.386Z,1.22
2018-07-21T12:50:44.003Z,1.10
2018-07-21T12:53:12.534Z,1.12
2018-07-21T12:55:41.036Z,1.57
2018-07-21T12:58:09.666Z,1.20
2018-07-21T13:00:38.386Z,1.30
2018-07-21T13:03:07.276Z,1.90
2018-07-21T13:05:35.858Z,1.45
2018-07-21T13:08:04.483Z,1.47
2018-07-21T13:10:33.075Z,1.75
2018-07-21T13:13:01.660Z,1.40
2018-07-21T13:15:30.334Z,1.40
2018-07-21T13:17:59.534Z,1.82
2018-07-21T13:20:28.278Z,1.42
2018-07-21T13:22:56.963Z,1.47
2018-07-21T13:25:25.545Z,1.50
2018-07-21T13:27:54.438Z,1.77
2018-07-21T13:30:23.691Z,1.45
2018-07-21T13:32:52.318Z,1.70
2018-07-21T13:35:20.906Z,1.50
2018-07-21T13:37:49.478Z,1.80
2018-07-21T13:40:18.067Z,1.72
2018-07-21T13:42:46.638Z,1.62
2018-07-21T13:45:15.170Z,1.30
2018-07-21T13:47:43.754Z,1.92
2018-07-21T13:50:12.398Z,1.40
2018-07-21T13:52:40.981Z,1.65
2018-07-21T13:55:09.584Z,1.87
2018-07-21T13:57:38.249Z,1.65
2018-07-21T14:00:07.397Z,1.70
2018-07-21T14:02:36.030Z,1.40
2018-07-21T14:05:04.695Z,1.57
2018-07-21T14:07:33.223Z,1.40
2018-07-21T14:10:01.851Z,1.17
2018-07-21T14:12:30.551Z,1.37
2018-07-21T14:14:59.074Z,1.60
2018-07-21T14:17:27.782Z,1.30
2018-07-21T14:19:56.417Z,1.52
2018-07-21T14:22:25.002Z,1.10
2018-07-21T14:24:53.514Z,1.35
2018-07-21T14:27:22.115Z,1.20
2018-07-21T14:29:50.758Z,1.57
2018-07-21T14:32:19.331Z,1.22
2018-07-21T14:34:48.020Z,1.50
2018-07-21T14:37:16.614Z,1.20
2018-07-21T14:39:45.179Z,1.10
2018-07-21T14:42:13.736Z,1.50
2018-07-21T14:44:42.418Z,0.93
2018-07-21T14:47:11.245Z,1.12
2018-07-21T14:49:39.939Z,1.10
2018-07-21T14:52:08.523Z,1.30
2018-07-21T14:54:37.228Z,1.55
2018-07-21T14:57:05.756Z,1.17
2018-07-21T14:59:34.243Z,1.07
2018-07-21T15:02:02.838Z,1.12
2018-07-21T15:04:32.042Z,1.27
2018-07-21T15:07:00.602Z,0.93
2018-07-21T15:09:29.219Z,1.10
2018-07-21T15:11:57.989Z,1.05
2018-07-21T15:14:26.498Z,1.10
2018-07-21T15:16:55.258Z,1.00
2018-07-21T15:19:23.886Z,0.80
2018-07-21T15:21:52.527Z,0.85
2018-07-21T15:24:21.133Z,0.80
2018-07-21T15:26:49.787Z,0.90
2018-07-21T15:29:19.197Z,1.10
2018-07-21T15:31:47.714Z,0.85
2018-07-21T15:34:16.295Z,0.82
2018-07-21T15:36:44.804Z,0.82
2018-07-21T15:39:13.375Z,1.10
2018-07-21T15:41:42.008Z,1.20
2018-07-21T15:44:10.595Z,1.40
2018-07-21T15:46:39.182Z,1.02
2018-07-21T15:49:07.698Z,0.98
2018-07-21T15:51:36.251Z,1.10
2018-07-21T15:54:04.908Z,1.20
2018-07-21T15:56:33.506Z,1.15
2018-07-21T15:59:02.107Z,1.25
2018-07-21T16:01:30.703Z,1.22
2018-07-21T16:03:59.310Z,1.25
2018-07-21T16:06:27.892Z,1.15
2018-07-21T16:08:56.522Z,1.30
2018-07-21T16:11:25.039Z,1.07
2018-07-21T16:13:53.588Z,1.35
2018-07-21T16:16:22.078Z,1.47
2018-07-21T16:18:50.678Z,1.30
2018-07-21T16:21:19.330Z,1.40
2018-07-21T16:23:47.859Z,1.50
2018-07-21T16:26:16.419Z,1.35
2018-07-21T16:28:45.083Z,1.52
2018-07-21T16:31:13.566Z,1.60
2018-07-21T16:33:42.251Z,1.25
2018-07-21T16:36:10.832Z,1.55
2018-07-21T16:38:39.416Z,1.40
2018-07-21T16:41:08.306Z,1.30
2018-07-21T16:43:36.904Z,1.12
2018-07-21T16:46:05.677Z,1.60
2018-07-21T16:48:34.258Z,1.17
2018-07-21T16:51:02.755Z,1.20
2018-07-21T16:53:31.351Z,1.32
2018-07-21T16:56:00.725Z,1.20
2018-07-21T16:58:29.491Z,1.30
2018-07-21T17:00:58.175Z,1.40
2018-07-21T17:03:27.321Z,1.12
2018-07-21T17:05:56.080Z,1.40
2018-07-21T17:08:24.699Z,1.40
2018-07-21T17:10:53.275Z,1.57
2018-07-21T17:13:21.843Z,1.35
2018-07-21T17:15:50.521Z,1.90
2018-07-21T17:18:19.198Z,1.42
2018-07-21T17:20:47.738Z,1.47
2018-07-21T17:23:16.291Z,1.80
2018-07-21T17:25:44.947Z,1.45
2018-07-21T17:28:13.475Z,1.30
2018-07-21T17:30:42.074Z,1.47
2018-07-21T17:33:10.703Z,1.90
2018-07-21T17:35:39.244Z,1.47
2018-07-21T17:38:08.764Z,1.12
2018-07-21T17:40:37.287Z,1.80
2018-07-21T17:43:05.868Z,1.65
2018-07-21T17:45:34.531Z,1.90
2018-07-21T17:48:03.221Z,1.70
2018-07-21T17:50:32.524Z,1.55
2018-07-21T17:53:01.118Z,1.70
2018-07-21T17:55:30.296Z,1.80
2018-07-21T17:57:58.875Z,2.10
2018-07-21T18:00:27.462Z,1.50
2018-07-21T18:02:56.045Z,1.42
2018-07-21T18:05:24.781Z,2.17
2018-07-21T18:07:53.518Z,1.50
2018-07-21T18:10:22.050Z,1.72
2018-07-21T18:12:50.683Z,1.75
2018-07-21T18:15:19.368Z,2.10
2018-07-21T18:17:48.112Z,1.47
2018-07-21T18:20:16.740Z,1.52
2018-07-21T18:22:45.354Z,1.67
2018-07-21T18:25:13.962Z,1.82
2018-07-21T18:27:42.591Z,1.50
2018-07-21T18:30:11.174Z,1.77
2018-07-21T18:32:39.759Z,1.87
2018-07-21T18:35:08.376Z,1.98
2018-07-21T18:37:37.013Z,2.15
2018-07-21T18:40:05.786Z,1.67
2018-07-21T18:42:34.334Z,1.72
2018-07-21T18:45:02.921Z,1.90
2018-07-21T18:47:31.560Z,1.98
2018-07-21T18:50:00.144Z,1.95
2018-07-21T18:52:28.739Z,1.82
2018-07-21T18:54:57.310Z,1.98
2018-07-21T18:57:25.842Z,1.85
2018-07-21T18:59:54.416Z,1.80
2018-07-21T19:02:23.058Z,1.90
2018-07-21T19:04:51.663Z,1.87
2018-07-21T19:07:20.266Z,2.08
2018-07-21T19:09:48.910Z,2.00
2018-07-21T19:12:22.716Z,1.70
2018-07-21T19:14:51.239Z,2.10
2018-07-21T19:17:19.835Z,1.90
2018-07-21T19:19:53.685Z,2.22
2018-07-21T19:22:22.270Z,1.98
2018-07-21T19:24:50.902Z,1.90
2018-07-21T19:27:24.758Z,2.00
2018-07-21T19:29:53.444Z,1.95
2018-07-21T19:32:27.147Z,2.12
2018-07-21T19:34:55.731Z,2.00
2018-07-21T19:37:29.640Z,2.02
2018-07-21T19:39:58.277Z,2.08
2018-07-21T19:42:26.834Z,1.82
2018-07-21T19:44:55.386Z,2.37
2018-07-21T19:47:24.068Z,2.00
2018-07-21T19:49:52.655Z,2.10
2018-07-21T19:52:21.202Z,2.10
2018-07-21T19:54:49.858Z,2.03
2018-07-21T19:57:18.423Z,2.08
2018-07-21T19:59:47.047Z,1.80
2018-07-21T20:02:16.287Z,2.00
2018-07-21T20:04:44.770Z,2.10
2018-07-21T20:07:13.913Z,2.00
2018-07-21T20:09:42.650Z,2.10
2018-07-21T20:12:11.342Z,1.90
2018-07-21T20:14:39.979Z,1.87
2018-07-21T20:17:09.888Z,1.90
2018-07-21T20:19:38.847Z,1.67
2018-07-21T20:22:07.614Z,1.67
2018-07-21T20:24:37.271Z,2.10
2018-07-21T20:27:06.701Z,1.82
2018-07-21T20:29:35.442Z,2.00
2018-07-21T20:32:03.942Z,2.00
2018-07-21T20:34:32.778Z,1.87
2018-07-21T20:37:01.874Z,2.20
2018-07-21T20:39:30.562Z,2.30
2018-07-21T20:41:59.246Z,2.00
2018-07-21T20:44:28.544Z,2.07
2018-07-21T20:46:57.232Z,2.00
2018-07-21T20:49:25.854Z,1.83
2018-07-21T20:51:54.370Z,2.00
2018-07-21T20:54:22.875Z,2.00
2018-07-21T20:56:51.423Z,1.83
2018-07-21T20:59:19.985Z,1.43
2018-07-21T21:01:48.686Z,1.80
2018-07-21T21:04:17.309Z,2.00
2018-07-21T21:06:45.813Z,1.97
2018-07-21T21:09:14.393Z,1.77
2018-07-21T21:11:42.964Z,1.73
2018-07-21T21:14:11.625Z,1.73
2018-07-21T21:16:40.328Z,2.20
2018-07-21T21:19:08.958Z,1.93
2018-07-21T21:21:38.210Z,1.87
2018-07-21T21:24:06.895Z,2.20
2018-07-21T21:26:35.538Z,2.20
2018-07-21T21:29:04.163Z,2.30
2018-07-21T21:31:32.848Z,2.33
2018-07-21T21:34:01.435Z,2.30
2018-07-21T21:36:30.220Z,2.27
2018-07-21T21:38:58.801Z,2.37
2018-07-21T21:41:27.384Z,2.20
2018-07-21T21:43:56.013Z,2.10
2018-07-21T21:46:24.653Z,2.33
2018-07-21T21:48:53.238Z,2.30
2018-07-21T21:51:21.923Z,2.40
2018-07-21T21:53:50.546Z,2.40
2018-07-21T21:56:19.047Z,2.30
2018-07-21T21:58:48.108Z,2.40
2018-07-21T22:01:17.065Z,2.27
2018-07-21T22:03:46.064Z,1.80
2018-07-21T22:06:14.563Z,2.60
2018-07-21T22:08:43.233Z,2.67
2018-07-21T22:11:12.006Z,2.50
2018-07-21T22:13:40.523Z,2.23
2018-07-21T22:16:09.182Z,2.33
2018-07-21T22:18:37.868Z,2.50
2018-07-21T22:21:06.451Z,2.60
2018-07-21T22:23:35.136Z,2.00
2018-07-21T22:26:03.821Z,2.10
2018-07-21T22:28:32.507Z,2.23
2018-07-21T22:31:01.015Z,2.50
2018-07-21T22:33:29.676Z,2.57
2018-07-21T22:35:58.360Z,2.33
2018-07-21T22:38:26.981Z,2.17
2018-07-21T22:40:55.626Z,2.17
2018-07-21T22:43:24.336Z,2.40
2018-07-21T22:45:53.054Z,2.57
2018-07-21T22:48:21.648Z,2.53
2018-07-21T22:50:50.269Z,2.33
2018-07-21T22:53:18.778Z,2.23
2018-07-21T22:55:47.455Z,2.10
2018-07-21T22:58:16.013Z,2.40
2018-07-21T23:00:44.804Z,2.50
2018-07-21T23:03:13.390Z,2.30
2018-07-21T23:05:41.979Z,2.87
2018-07-21T23:08:11.307Z,2.20
2018-07-21T23:10:40.015Z,2.07
2018-07-21T23:13:08.772Z,2.10
2018-07-21T23:15:37.380Z,2.17
2018-07-21T23:18:06.047Z,1.87
2018-07-21T23:20:34.689Z,2.10
2018-07-21T23:23:03.379Z,2.10
2018-07-21T23:25:32.007Z,2.10
2018-07-21T23:28:00.646Z,2.10
2018-07-21T23:30:30.253Z,2.20
2018-07-21T23:32:58.938Z,2.37
2018-07-21T23:35:27.441Z,2.17
2018-07-21T23:37:56.044Z,2.20
2018-07-21T23:40:24.687Z,2.37
2018-07-21T23:42:53.494Z,2.40
2018-07-21T23:45:22.719Z,2.17
2018-07-21T23:47:51.462Z,2.50
2018-07-21T23:50:20.704Z,2.10
2018-07-21T23:52:50.366Z,2.40
2018-07-21T23:55:18.977Z,2.63
2018-07-21T23:57:47.550Z,2.80
